createdAt,value
2019-01-03T00:00:37.752Z,22.20
2019-01-03T00:03:35.493Z,22.10
2019-01-03T00:06:33.045Z,22.10
2019-01-03T00:09:27.564Z,22.00
2019-01-03T00:12:18.768Z,22.00
2019-01-03T00:15:12.989Z,22.00
2019-01-03T00:18:14.776Z,22.00
2019-01-03T00:21:13.126Z,21.90
2019-01-03T00:24:02.139Z,21.90
2019-01-03T00:27:08.587Z,21.80
2019-01-03T00:29:59.338Z,21.70
2019-01-03T00:32:50.905Z,21.60
2019-01-03T00:35:40.769Z,21.60
2019-01-03T00:38:25.660Z,21.60
2019-01-03T00:41:10.161Z,21.60
2019-01-03T00:47:19.165Z,21.40
2019-01-03T00:50:11.985Z,21.30
2019-01-03T00:53:21.285Z,21.30
2019-01-03T00:56:17.064Z,21.20
2019-01-03T00:59:16.872Z,21.10
2019-01-03T01:02:22.319Z,21.10
2019-01-03T01:05:16.897Z,21.00
2019-01-03T01:08:13.094Z,20.90
2019-01-03T01:11:06.362Z,20.90
2019-01-03T01:14:14.847Z,20.80
2019-01-03T01:17:07.034Z,20.70
2019-01-03T01:19:58.744Z,20.70
2019-01-03T01:22:49.197Z,20.70
2019-01-03T01:25:40.672Z,20.60
2019-01-03T01:28:34.457Z,20.50
2019-01-03T01:31:38.234Z,20.50
2019-01-03T01:34:32.583Z,20.40
2019-01-03T01:37:27.892Z,20.40
2019-01-03T01:40:21.615Z,20.30
2019-01-03T01:43:15.909Z,20.20
2019-01-03T01:46:07.785Z,20.20
2019-01-03T01:49:17.484Z,20.20
2019-01-03T01:52:10.647Z,20.10
2019-01-03T01:55:22.547Z,20.00
2019-01-03T01:58:34.421Z,20.00
2019-01-03T02:01:41.420Z,19.90
2019-01-03T02:04:32.386Z,19.80
2019-01-03T02:07:29.530Z,19.80
2019-01-03T02:10:40.995Z,19.80
2019-01-03T02:13:34.558Z,19.70
2019-01-03T02:16:34.700Z,19.60
2019-01-03T02:19:30.353Z,19.50
2019-01-03T02:22:22.596Z,19.50
2019-01-03T02:25:08.638Z,19.40
2019-01-03T02:28:10.989Z,19.30
2019-01-03T02:31:03.428Z,19.30
2019-01-03T02:33:55.307Z,19.20
2019-01-03T02:36:52.524Z,19.20
2019-01-03T02:40:01.917Z,19.10
2019-01-03T02:42:53.775Z,19.10
2019-01-03T02:46:00.028Z,19.10
2019-01-03T02:48:52.053Z,19.00
2019-01-03T02:51:50.817Z,19.00
2019-01-03T02:54:43.238Z,19.00
2019-01-03T02:57:36.162Z,19.00
2019-01-03T03:00:26.506Z,18.90
2019-01-03T03:03:16.429Z,18.90
2019-01-03T03:06:06.636Z,18.80
2019-01-03T03:08:49.436Z,18.80
2019-01-03T03:11:46.407Z,18.70
2019-01-03T03:14:42.604Z,18.70
2019-01-03T03:17:36.228Z,18.70
2019-01-03T03:20:27.978Z,18.60
2019-01-03T03:23:27.159Z,18.50
2019-01-03T03:26:22.308Z,18.50
2019-01-03T03:29:24.641Z,18.50
2019-01-03T03:32:16.301Z,18.40
2019-01-03T03:35:18.970Z,18.40
2019-01-03T03:38:18.232Z,18.40
2019-01-03T03:40:49.615Z,18.40
2019-01-03T03:43:40.133Z,18.30
2019-01-03T03:46:27.000Z,18.30
2019-01-03T03:49:18.052Z,18.30
2019-01-03T03:52:10.548Z,18.20
2019-01-03T03:55:01.647Z,18.20
2019-01-03T03:58:04.769Z,18.20
2019-01-03T04:01:05.322Z,18.10
2019-01-03T04:04:11.527Z,18.10
2019-01-03T04:07:12.056Z,18.10
2019-01-03T04:10:16.256Z,18.00
2019-01-03T04:13:13.115Z,18.00
2019-01-03T04:16:13.440Z,18.00
2019-01-03T04:19:14.404Z,18.00
2019-01-03T04:22:06.979Z,17.90
2019-01-03T04:24:58.428Z,17.90
2019-01-03T04:27:50.817Z,17.90
2019-01-03T04:30:41.240Z,17.80
2019-01-03T04:33:15.401Z,17.80
2019-01-03T04:36:06.179Z,17.80
2019-01-03T04:38:40.420Z,17.80
2019-01-03T04:41:41.011Z,17.70
2019-01-03T04:44:34.704Z,17.70
2019-01-03T04:47:21.924Z,17.60
2019-01-03T04:50:25.118Z,17.60
2019-01-03T04:53:34.376Z,17.60
2019-01-03T04:56:26.311Z,17.50
2019-01-03T04:59:25.095Z,17.50
2019-01-03T05:02:21.027Z,17.50
2019-01-03T05:05:21.036Z,17.40
2019-01-03T05:08:24.168Z,17.40
2019-01-03T05:11:16.170Z,17.40
2019-01-03T05:14:07.360Z,17.30
2019-01-03T05:16:55.873Z,17.30
2019-01-03T05:19:50.808Z,17.30
2019-01-03T05:22:34.372Z,17.30
2019-01-03T05:25:28.573Z,17.20
2019-01-03T05:28:19.556Z,17.20
2019-01-03T05:31:03.415Z,17.20
2019-01-03T05:34:03.117Z,17.10
2019-01-03T05:36:34.526Z,17.10
2019-01-03T05:39:31.037Z,17.10
2019-01-03T05:42:28.425Z,17.20
2019-01-03T05:45:28.793Z,17.20
2019-01-03T05:48:34.559Z,17.20
2019-01-03T05:51:31.666Z,17.10
2019-01-03T05:54:24.185Z,17.10
2019-01-03T05:57:27.280Z,17.10
2019-01-03T05:59:55.675Z,17.10
2019-01-03T06:02:53.003Z,17.00
2019-01-03T06:05:55.520Z,17.00
2019-01-03T06:08:46.770Z,16.90
2019-01-03T06:11:38.602Z,16.90
2019-01-03T06:14:27.128Z,16.90
2019-01-03T06:17:16.775Z,16.80
2019-01-03T06:20:09.424Z,16.80
2019-01-03T06:23:20.935Z,16.70
2019-01-03T06:26:20.176Z,16.70
2019-01-03T06:29:19.732Z,16.60
2019-01-03T06:32:13.120Z,16.60
2019-01-03T06:35:03.310Z,16.60
2019-01-03T06:37:55.749Z,16.50
2019-01-03T06:40:45.757Z,16.50
2019-01-03T06:43:38.399Z,16.50
2019-01-03T06:46:30.531Z,16.50
2019-01-03T06:49:22.884Z,16.50
2019-01-03T06:52:23.350Z,16.50
2019-01-03T06:55:16.707Z,16.50
2019-01-03T06:58:23.187Z,16.50
2019-01-03T07:01:14.977Z,16.60
2019-01-03T07:04:15.785Z,16.50
2019-01-03T07:07:13.113Z,16.50
2019-01-03T07:10:11.731Z,16.50
2019-01-03T07:13:05.980Z,16.50
2019-01-03T07:16:13.801Z,16.50
2019-01-03T07:19:26.096Z,16.60
2019-01-03T07:22:26.272Z,16.60
2019-01-03T07:25:22.168Z,16.70
2019-01-03T07:28:15.755Z,16.70
2019-01-03T07:31:13.261Z,16.80
2019-01-03T07:34:18.658Z,16.80
2019-01-03T07:37:12.894Z,16.80
2019-01-03T07:40:04.642Z,16.90
2019-01-03T07:43:01.655Z,16.90
2019-01-03T07:45:53.351Z,16.90
2019-01-03T07:48:50.482Z,16.90
2019-01-03T07:51:47.611Z,16.90
2019-01-03T07:54:40.215Z,17.00
2019-01-03T07:57:46.508Z,17.00
2019-01-03T08:00:39.506Z,16.90
2019-01-03T08:03:31.061Z,16.90
2019-01-03T08:06:23.726Z,16.80
2019-01-03T08:09:16.575Z,16.80
2019-01-03T08:12:17.004Z,16.80
2019-01-03T08:15:10.178Z,16.80
2019-01-03T08:18:14.628Z,16.80
2019-01-03T08:21:04.594Z,16.80
2019-01-03T08:24:02.163Z,16.80
2019-01-03T08:26:53.212Z,16.80
2019-01-03T08:29:44.751Z,16.80
2019-01-03T08:32:37.579Z,16.80
2019-01-03T08:35:29.044Z,16.80
2019-01-03T08:38:35.181Z,16.80
2019-01-03T08:41:38.423Z,16.70
2019-01-03T08:44:49.907Z,16.70
2019-01-03T08:47:42.824Z,16.70
2019-01-03T08:50:42.337Z,16.70
2019-01-03T08:53:34.492Z,16.70
2019-01-03T08:56:26.987Z,16.70
2019-01-03T08:59:23.563Z,16.70
2019-01-03T09:02:19.954Z,16.70
2019-01-03T09:05:17.318Z,16.70
2019-01-03T09:08:20.825Z,16.70
2019-01-03T09:11:19.851Z,16.80
2019-01-03T09:14:26.147Z,16.80
2019-01-03T09:17:19.659Z,16.70
2019-01-03T09:20:13.889Z,16.80
2019-01-03T09:23:05.421Z,16.70
2019-01-03T09:26:14.861Z,16.80
2019-01-03T09:29:04.564Z,16.70
2019-01-03T09:31:58.901Z,16.80
2019-01-03T09:34:53.063Z,16.80
2019-01-03T09:37:43.012Z,16.80
2019-01-03T09:40:34.643Z,16.80
2019-01-03T09:43:34.929Z,16.80
2019-01-03T09:46:08.277Z,16.90
2019-01-03T09:48:41.558Z,16.90
2019-01-03T09:51:15.029Z,16.90
2019-01-03T09:53:48.468Z,16.90
2019-01-03T09:56:21.965Z,17.00
2019-01-03T09:58:55.383Z,17.00
2019-01-03T10:01:28.906Z,16.90
2019-01-03T10:04:02.917Z,16.90
2019-01-03T10:06:36.412Z,16.90
2019-01-03T10:09:10.871Z,16.90
2019-01-03T10:11:44.444Z,16.90
2019-01-03T10:14:17.869Z,16.90
2019-01-03T10:16:51.262Z,16.80
2019-01-03T10:19:24.692Z,16.90
2019-01-03T10:21:58.230Z,16.90
2019-01-03T10:24:31.719Z,16.80
2019-01-03T10:27:08.407Z,16.80
2019-01-03T10:29:44.498Z,16.80
2019-01-03T10:32:20.919Z,16.90
2019-01-03T10:34:56.013Z,16.90
2019-01-03T10:37:29.517Z,16.90
2019-01-03T10:40:02.879Z,16.90
2019-01-03T10:42:36.276Z,16.90
2019-01-03T10:45:12.973Z,16.90
2019-01-03T10:47:49.886Z,16.90
2019-01-03T10:50:23.760Z,16.80
2019-01-03T10:52:59.435Z,16.80
2019-01-03T10:55:32.842Z,16.80
2019-01-03T10:58:06.356Z,16.70
2019-01-03T11:00:39.761Z,16.70
2019-01-03T11:03:13.272Z,16.70
2019-01-03T11:05:47.758Z,16.70
2019-01-03T11:08:21.365Z,16.60
2019-01-03T11:10:54.796Z,16.60
2019-01-03T11:13:28.367Z,16.50
2019-01-03T11:16:01.758Z,16.50
2019-01-03T11:18:35.234Z,16.50
2019-01-03T11:21:08.620Z,16.40
2019-01-03T11:23:42.099Z,16.40
2019-01-03T11:26:15.677Z,16.40
2019-01-03T11:28:49.104Z,16.40
2019-01-03T11:31:22.526Z,16.40
2019-01-03T11:33:56.103Z,16.40
2019-01-03T11:36:29.555Z,16.40
2019-01-03T11:39:03.100Z,16.40
2019-01-03T11:41:36.555Z,16.40
2019-01-03T11:44:10.146Z,16.40
2019-01-03T11:46:43.567Z,16.40
2019-01-03T11:49:16.892Z,16.30
2019-01-03T11:51:50.955Z,16.40
2019-01-03T11:54:28.160Z,16.40
2019-01-03T11:57:04.021Z,16.40
2019-01-03T11:59:38.581Z,16.40
2019-01-03T12:02:14.112Z,16.40
2019-01-03T12:04:50.439Z,16.40
2019-01-03T12:07:26.484Z,16.40
2019-01-03T12:10:03.209Z,16.40
2019-01-03T12:13:02.359Z,16.40
2019-01-03T12:15:35.869Z,16.40
2019-01-03T12:18:11.405Z,16.40
2019-01-03T12:20:45.269Z,16.40
2019-01-03T12:23:22.440Z,16.40
2019-01-03T12:33:18.709Z,16.40
2019-01-03T12:36:27.526Z,16.30
2019-01-03T12:39:12.454Z,16.20
2019-01-03T12:41:49.125Z,16.20
2019-01-03T12:44:22.811Z,16.20
2019-01-03T12:46:52.581Z,16.30
2019-01-03T12:49:25.419Z,16.30
2019-01-03T12:51:59.243Z,16.30
2019-01-03T12:54:32.844Z,16.40
2019-01-03T12:57:06.748Z,16.40
2019-01-03T12:59:40.483Z,16.40
2019-01-03T13:02:13.794Z,16.50
2019-01-03T13:04:48.033Z,16.60
2019-01-03T13:07:21.473Z,16.60
2019-01-03T13:09:58.910Z,16.70
2019-01-03T13:12:33.046Z,16.70
2019-01-03T13:15:09.379Z,16.80
2019-01-03T13:21:28.402Z,16.90
2019-01-03T13:27:00.482Z,17.00
2019-01-03T13:29:47.582Z,17.00
2019-01-03T13:49:45.513Z,17.00
2019-01-03T13:52:23.161Z,17.00
2019-01-03T13:55:05.116Z,16.90
2019-01-03T13:57:41.526Z,16.90
2019-01-03T14:00:15.695Z,16.90
2019-01-03T14:02:59.591Z,16.90
2019-01-03T14:06:17.908Z,16.90
2019-01-03T14:08:56.735Z,16.90
2019-01-03T14:11:34.359Z,16.90
2019-01-03T14:17:09.040Z,17.00
2019-01-03T14:19:40.606Z,17.00
2019-01-03T14:22:14.871Z,17.10
2019-01-03T14:24:48.586Z,17.20
2019-01-03T14:27:25.151Z,17.20
2019-01-03T14:30:07.900Z,17.30
2019-01-03T14:33:16.034Z,17.30
2019-01-03T14:36:19.523Z,17.40
2019-01-03T14:45:56.839Z,17.80
2019-01-03T14:48:43.014Z,18.00
2019-01-03T14:51:17.542Z,18.00
2019-01-03T14:54:13.853Z,18.10
2019-01-03T15:00:13.454Z,18.20
2019-01-03T15:02:47.657Z,18.30
2019-01-03T15:06:05.659Z,18.40
2019-01-03T15:08:48.985Z,18.50
2019-01-03T15:11:19.606Z,18.60
2019-01-03T15:13:55.701Z,18.70
2019-01-03T15:16:29.338Z,18.70
2019-01-03T15:19:02.845Z,18.70
2019-01-03T15:21:36.399Z,18.80
2019-01-03T15:24:10.189Z,18.90
2019-01-03T15:26:43.750Z,18.90
2019-01-03T15:29:17.753Z,19.00
2019-01-03T15:31:51.583Z,19.00
2019-01-03T15:34:26.866Z,19.10
2019-01-03T15:37:00.770Z,19.20
2019-01-03T15:55:29.866Z,19.80
2019-01-03T16:01:07.930Z,20.00
2019-01-03T16:03:45.924Z,20.00
2019-01-03T16:06:25.847Z,20.10
2019-01-03T16:08:58.433Z,20.10
2019-01-03T16:11:31.980Z,20.10
2019-01-03T16:14:15.638Z,20.20
2019-01-03T16:17:07.179Z,20.30
2019-01-03T16:19:40.705Z,20.40
2019-01-03T16:22:14.308Z,20.50
2019-01-03T16:24:47.969Z,20.70
2019-01-03T16:27:43.206Z,20.80
2019-01-03T16:30:17.048Z,20.90
2019-01-03T16:32:50.615Z,20.90
2019-01-03T16:35:24.291Z,20.90
2019-01-03T16:38:00.440Z,21.00
2019-01-03T16:40:33.519Z,21.10
2019-01-03T16:43:08.078Z,21.30
2019-01-03T16:45:41.543Z,21.40
2019-01-03T16:48:17.102Z,21.50
2019-01-03T16:50:49.926Z,21.70
2019-01-03T16:53:51.736Z,21.80
2019-01-03T16:56:14.045Z,21.90
2019-01-03T16:58:54.290Z,22.10
2019-01-03T17:01:27.942Z,22.20
2019-01-03T17:04:01.437Z,22.30
2019-01-03T17:06:55.443Z,22.40
2019-01-03T17:09:29.329Z,22.40
2019-01-03T17:12:38.249Z,22.60
2019-01-03T17:15:39.985Z,22.70
2019-01-03T17:18:06.224Z,22.80
2019-01-03T17:20:41.729Z,22.80
2019-01-03T17:23:15.297Z,22.90
2019-01-03T17:25:49.424Z,22.90
2019-01-03T17:28:22.798Z,23.00
2019-01-03T17:30:57.037Z,23.00
2019-01-03T17:33:49.471Z,23.00
2019-01-03T17:36:23.074Z,23.10
2019-01-03T17:45:33.167Z,23.20
2019-01-03T17:48:49.938Z,23.40
2019-01-03T17:51:24.205Z,23.50
2019-01-03T17:54:00.786Z,23.70
2019-01-03T17:56:39.325Z,23.80
2019-01-03T17:59:13.193Z,23.80
2019-01-03T18:04:57.637Z,24.00
2019-01-03T18:07:50.684Z,24.10
2019-01-03T18:10:44.951Z,24.10
2019-01-03T18:13:43.784Z,24.20
2019-01-03T18:28:05.201Z,24.80
2019-01-03T18:34:19.016Z,24.90
2019-01-03T18:36:55.970Z,24.90
2019-01-03T18:39:30.305Z,25.00
2019-01-03T18:42:17.000Z,25.10
2019-01-03T18:44:52.535Z,25.10
2019-01-03T18:47:26.582Z,25.20
2019-01-03T18:53:32.615Z,25.40
2019-01-03T18:56:15.091Z,25.50
2019-01-03T18:58:54.269Z,25.60
2019-01-03T19:01:28.842Z,25.70
2019-01-03T19:04:31.386Z,25.70
2019-01-03T19:07:16.197Z,25.80
2019-01-03T19:09:55.538Z,25.90
2019-01-03T19:12:44.535Z,26.20
2019-01-03T19:15:23.901Z,26.20
2019-01-03T19:18:59.634Z,26.10
2019-01-03T19:22:29.152Z,26.20
2019-01-03T20:01:59.686Z,27.00
2019-01-03T20:04:47.074Z,27.10
2019-01-03T20:07:19.809Z,27.10
2019-01-03T20:09:53.661Z,27.30
2019-01-03T20:13:20.715Z,27.20
2019-01-03T20:56:23.013Z,28.30
2019-01-03T21:58:09.018Z,28.90
2019-01-03T22:00:42.349Z,28.90
2019-01-03T22:03:44.652Z,28.90
2019-01-03T22:06:20.100Z,28.90
2019-01-03T22:08:53.640Z,28.90
2019-01-03T22:11:27.442Z,28.80
2019-01-03T22:14:03.500Z,28.70
2019-01-03T22:16:36.212Z,28.60
2019-01-03T22:19:09.859Z,28.50
2019-01-03T22:21:43.437Z,28.30
2019-01-03T22:24:17.223Z,28.20
2019-01-03T22:26:50.678Z,28.10
2019-01-03T22:29:27.489Z,27.80
2019-01-03T22:32:01.017Z,27.60
2019-01-03T22:34:34.745Z,27.30
2019-01-03T22:37:44.324Z,27.10
2019-01-03T22:41:00.743Z,26.90
2019-01-03T22:43:45.322Z,26.60
2019-01-03T22:46:23.515Z,26.30
2019-01-03T22:49:07.271Z,26.00
2019-01-03T22:51:48.585Z,25.70
2019-01-03T22:54:39.304Z,25.40
2019-01-03T22:57:15.410Z,25.30
2019-01-03T22:59:48.892Z,25.10
2019-01-03T23:02:32.409Z,24.90
2019-01-03T23:05:21.990Z,24.60
2019-01-03T23:08:40.085Z,24.50
2019-01-03T23:11:35.196Z,24.40
2019-01-03T23:14:34.695Z,24.40
2019-01-03T23:17:26.621Z,24.40
2019-01-03T23:23:12.593Z,24.10
2019-01-03T23:26:20.809Z,24.00
2019-01-03T23:32:44.231Z,23.90
2019-01-03T23:35:26.668Z,23.80
2019-01-03T23:38:10.169Z,23.70
2019-01-03T23:40:43.879Z,23.70
2019-01-03T23:49:59.582Z,23.50
2019-01-03T23:53:04.130Z,23.50
2019-01-03T23:56:14.024Z,23.40
2019-01-03T23:59:30.480Z,23.30
